sensor_id;sensor_type;location;lat;lon;timestamp;pressure;altitude;pressure_sealevel;temperature;humidity
70952;BME280;77099;56.074;37.376;2024-03-23T00:56:03;97926.25;;;1.48;64.91
70952;BME280;77099;56.074;37.376;2024-03-23T00:58:29;97904.75;;;1.42;64.64
70952;BME280;77099;56.074;37.376;2024-03-23T01:00:54;97924.34;;;1.55;63.72
70952;BME280;77099;56.074;37.376;2024-03-23T01:03:20;97917.16;;;1.49;64.44
70952;BME280;77099;56.074;37.376;2024-03-23T01:05:46;97917.97;;;1.50;64.87
70952;BME280;77099;56.074;37.376;2024-03-23T01:08:11;97918.16;;;1.55;63.15
70952;BME280;77099;56.074;37.376;2024-03-23T01:10:37;97904.94;;;1.53;62.76
70952;BME280;77099;56.074;37.376;2024-03-23T01:13:03;97907.63;;;1.53;63.80
70952;BME280;77099;56.074;37.376;2024-03-23T01:15:28;97894.81;;;1.49;64.23
70952;BME280;77099;56.074;37.376;2024-03-23T01:17:54;97894.00;;;1.48;64.30
70952;BME280;77099;56.074;37.376;2024-03-23T01:20:20;97879.16;;;1.39;63.01
70952;BME280;77099;56.074;37.376;2024-03-23T01:22:45;97899.56;;;1.53;65.19
70952;BME280;77099;56.074;37.376;2024-03-23T01:25:11;97891.31;;;1.48;64.51
70952;BME280;77099;56.074;37.376;2024-03-23T01:27:36;97891.09;;;1.50;64.58
70952;BME280;77099;56.074;37.376;2024-03-23T01:30:02;97884.06;;;1.49;64.42
70952;BME280;77099;56.074;37.376;2024-03-23T01:32:29;97895.22;;;1.52;66.19
70952;BME280;77099;56.074;37.376;2024-03-23T01:34:54;97881.78;;;1.52;64.69
70952;BME280;77099;56.074;37.376;2024-03-23T01:37:20;97878.66;;;1.55;64.46
70952;BME280;77099;56.074;37.376;2024-03-23T01:39:45;97867.69;;;1.57;64.31
70952;BME280;77099;56.074;37.376;2024-03-23T01:42:12;97870.38;;;1.57;64.90
70952;BME280;77099;56.074;37.376;2024-03-23T01:44:38;97856.13;;;1.56;66.47
70952;BME280;77099;56.074;37.376;2024-03-23T01:47:03;97862.09;;;1.58;65.91
70952;BME280;77099;56.074;37.376;2024-03-23T01:49:29;97854.03;;;1.58;65.38
70952;BME280;77099;56.074;37.376;2024-03-23T01:51:55;97845.16;;;1.58;65.01
70952;BME280;77099;56.074;37.376;2024-03-23T01:54:21;97842.91;;;1.55;66.45
70952;BME280;77099;56.074;37.376;2024-03-23T01:56:48;97840.81;;;1.57;66.80
70952;BME280;77099;56.074;37.376;2024-03-23T01:59:14;97833.19;;;1.54;65.85
70952;BME280;77099;56.074;37.376;2024-03-23T02:01:40;97825.13;;;1.54;65.00
70952;BME280;77099;56.074;37.376;2024-03-23T02:04:06;97825.34;;;1.52;66.13
70952;BME280;77099;56.074;37.376;2024-03-23T02:06:33;97816.66;;;1.50;65.59
70952;BME280;77099;56.074;37.376;2024-03-23T02:08:59;97817.88;;;1.54;65.62
70952;BME280;77099;56.074;37.376;2024-03-23T02:11:25;97812.72;;;1.53;66.24
70952;BME280;77099;56.074;37.376;2024-03-23T02:13:51;97809.44;;;1.51;66.64
70952;BME280;77099;56.074;37.376;2024-03-23T02:16:16;97806.78;;;1.44;67.08
70952;BME280;77099;56.074;37.376;2024-03-23T02:18:42;97802.22;;;1.45;67.46
70952;BME280;77099;56.074;37.376;2024-03-23T02:21:08;97804.25;;;1.49;67.89
70952;BME280;77099;56.074;37.376;2024-03-23T02:23:33;97796.59;;;1.53;67.62
70952;BME280;77099;56.074;37.376;2024-03-23T02:25:59;97797.19;;;1.55;67.88
70952;BME280;77099;56.074;37.376;2024-03-23T02:28:25;97789.34;;;1.53;69.05
70952;BME280;77099;56.074;37.376;2024-03-23T02:30:50;97788.09;;;1.56;68.20
70952;BME280;77099;56.074;37.376;2024-03-23T02:33:16;97773.06;;;1.48;69.04
70952;BME280;77099;56.074;37.376;2024-03-23T02:35:45;97771.53;;;1.59;68.37
70952;BME280;77099;56.074;37.376;2024-03-23T02:38:11;97759.97;;;1.58;68.92
70952;BME280;77099;56.074;37.376;2024-03-23T02:40:36;97757.88;;;1.60;68.32
70952;BME280;77099;56.074;37.376;2024-03-23T02:43:03;97759.31;;;1.63;69.27
70952;BME280;77099;56.074;37.376;2024-03-23T02:45:29;97749.38;;;1.63;69.99
70952;BME280;77099;56.074;37.376;2024-03-23T02:47:55;97758.72;;;1.61;69.56
70952;BME280;77099;56.074;37.376;2024-03-23T02:50:21;97718.03;;;1.51;70.35
70952;BME280;77099;56.074;37.376;2024-03-23T02:52:47;97708.78;;;1.47;69.38
70952;BME280;77099;56.074;37.376;2024-03-23T02:55:13;97734.28;;;1.62;69.63
70952;BME280;77099;56.074;37.376;2024-03-23T02:57:39;97720.69;;;1.57;69.87
70952;BME280;77099;56.074;37.376;2024-03-23T03:00:06;97716.13;;;1.58;70.65
70952;BME280;77099;56.074;37.376;2024-03-23T03:02:33;97723.75;;;1.61;70.69
70952;BME280;77099;56.074;37.376;2024-03-23T03:04:59;97724.59;;;1.61;70.14
70952;BME280;77099;56.074;37.376;2024-03-23T03:07:24;97714.66;;;1.62;70.76
70952;BME280;77099;56.074;37.376;2024-03-23T03:09:50;97721.69;;;1.63;71.34
70952;BME280;77099;56.074;37.376;2024-03-23T03:12:16;97708.69;;;1.60;71.04
70952;BME280;77099;56.074;37.376;2024-03-23T03:14:42;97715.66;;;1.68;70.46
70952;BME280;77099;56.074;37.376;2024-03-23T03:17:07;97701.81;;;1.64;72.28
70952;BME280;77099;56.074;37.376;2024-03-23T03:19:33;97705.50;;;1.70;71.97
70952;BME280;77099;56.074;37.376;2024-03-23T03:21:59;97696.63;;;1.69;72.09
70952;BME280;77099;56.074;37.376;2024-03-23T03:24:25;97663.03;;;1.53;71.46
70952;BME280;77099;56.074;37.376;2024-03-23T03:26:51;97681.09;;;1.71;71.68
70952;BME280;77099;56.074;37.376;2024-03-23T03:29:16;97669.56;;;1.64;71.08
70952;BME280;77099;56.074;37.376;2024-03-23T03:31:43;97680.03;;;1.72;72.27
70952;BME280;77099;56.074;37.376;2024-03-23T03:34:08;97670.34;;;1.71;73.00
70952;BME280;77099;56.074;37.376;2024-03-23T03:36:34;97662.06;;;1.73;72.43
70952;BME280;77099;56.074;37.376;2024-03-23T03:39:00;97615.47;;;1.54;72.66
70952;BME280;77099;56.074;37.376;2024-03-23T03:41:25;97652.50;;;1.77;72.23
70952;BME280;77099;56.074;37.376;2024-03-23T03:43:51;97641.31;;;1.80;72.50
70952;BME280;77099;56.074;37.376;2024-03-23T03:46:17;97631.00;;;1.77;72.31
70952;BME280;77099;56.074;37.376;2024-03-23T03:48:42;97642.06;;;1.87;72.72
70952;BME280;77099;56.074;37.376;2024-03-23T03:51:11;97644.09;;;1.91;72.53
70952;BME280;77099;56.074;37.376;2024-03-23T03:53:36;97640.97;;;1.94;73.28
70952;BME280;77099;56.074;37.376;2024-03-23T03:56:02;97628.56;;;1.93;72.40
70952;BME280;77099;56.074;37.376;2024-03-23T03:58:28;97612.19;;;1.95;73.14
70952;BME280;77099;56.074;37.376;2024-03-23T04:00:54;97629.91;;;2.03;73.81
70952;BME280;77099;56.074;37.376;2024-03-23T04:03:20;97623.28;;;2.05;72.68
70952;BME280;77099;56.074;37.376;2024-03-23T04:05:53;97629.03;;;2.09;72.95
70952;BME280;77099;56.074;37.376;2024-03-23T04:08:19;97616.03;;;2.06;73.78
70952;BME280;77099;56.074;37.376;2024-03-23T04:10:45;97620.50;;;2.12;73.45
70952;BME280;77099;56.074;37.376;2024-03-23T04:13:12;97606.00;;;2.13;73.20
70952;BME280;77099;56.074;37.376;2024-03-23T04:15:38;97611.53;;;2.18;73.89
70952;BME280;77099;56.074;37.376;2024-03-23T04:18:04;97598.38;;;2.10;74.04
70952;BME280;77099;56.074;37.376;2024-03-23T04:20:30;97609.09;;;2.16;73.42
70952;BME280;77099;56.074;37.376;2024-03-23T04:22:55;97596.00;;;2.20;74.03
70952;BME280;77099;56.074;37.376;2024-03-23T04:25:21;97593.91;;;2.22;74.12
70952;BME280;77099;56.074;37.376;2024-03-23T04:27:47;97596.81;;;2.20;73.89
70952;BME280;77099;56.074;37.376;2024-03-23T04:30:12;97582.53;;;2.20;74.67
70952;BME280;77099;56.074;37.376;2024-03-23T04:32:38;97592.63;;;2.24;74.27
70952;BME280;77099;56.074;37.376;2024-03-23T04:35:04;97591.81;;;2.24;75.01
70952;BME280;77099;56.074;37.376;2024-03-23T04:37:37;97587.25;;;2.24;74.31
70952;BME280;77099;56.074;37.376;2024-03-23T04:40:06;97583.38;;;2.20;74.88
70952;BME280;77099;56.074;37.376;2024-03-23T04:42:32;97580.81;;;2.25;74.60
70952;BME280;77099;56.074;37.376;2024-03-23T04:44:58;97554.31;;;2.11;75.48
70952;BME280;77099;56.074;37.376;2024-03-23T04:47:24;97585.63;;;2.23;75.44
70952;BME280;77099;56.074;37.376;2024-03-23T04:49:50;97565.34;;;2.21;75.56
70952;BME280;77099;56.074;37.376;2024-03-23T04:52:17;97568.88;;;2.21;75.14
70952;BME280;77099;56.074;37.376;2024-03-23T04:54:42;97570.44;;;2.29;75.33
70952;BME280;77099;56.074;37.376;2024-03-23T04:57:08;97565.88;;;2.30;75.88
70952;BME280;77099;56.074;37.376;2024-03-23T04:59:34;97564.00;;;2.30;75.92
70952;BME280;77099;56.074;37.376;2024-03-23T05:02:00;97547.13;;;2.23;76.68
70952;BME280;77099;56.074;37.376;2024-03-23T05:04:26;97556.16;;;2.28;76.50
70952;BME280;77099;56.074;37.376;2024-03-23T05:06:52;97557.13;;;2.34;76.05
70952;BME280;77099;56.074;37.376;2024-03-23T05:09:18;97544.19;;;2.24;76.00
70952;BME280;77099;56.074;37.376;2024-03-23T05:11:44;97534.13;;;2.20;77.04
70952;BME280;77099;56.074;37.376;2024-03-23T05:14:14;97556.75;;;2.31;76.86
70952;BME280;77099;56.074;37.376;2024-03-23T05:16:40;97548.47;;;2.32;77.26
70952;BME280;77099;56.074;37.376;2024-03-23T05:19:06;97535.44;;;2.29;77.09
70952;BME280;77099;56.074;37.376;2024-03-23T05:21:32;97535.38;;;2.36;77.53
70952;BME280;77099;56.074;37.376;2024-03-23T05:23:57;97535.81;;;2.33;76.93
70952;BME280;77099;56.074;37.376;2024-03-23T05:26:23;97522.59;;;2.31;77.28
70952;BME280;77099;56.074;37.376;2024-03-23T05:28:49;97512.88;;;2.30;77.76
70952;BME280;77099;56.074;37.376;2024-03-23T05:31:24;97519.13;;;2.42;77.36
70952;BME280;77099;56.074;37.376;2024-03-23T05:33:51;97508.69;;;2.34;77.75
70952;BME280;77099;56.074;37.376;2024-03-23T05:36:17;97520.78;;;2.43;78.48
70952;BME280;77099;56.074;37.376;2024-03-23T05:38:43;97513.28;;;2.45;78.53
70952;BME280;77099;56.074;37.376;2024-03-23T05:41:09;97503.34;;;2.46;77.58
70952;BME280;77099;56.074;37.376;2024-03-23T05:43:34;97507.09;;;2.45;78.08
70952;BME280;77099;56.074;37.376;2024-03-23T05:46:00;97465.59;;;2.22;78.41
70952;BME280;77099;56.074;37.376;2024-03-23T05:48:31;97503.34;;;2.46;78.20
70952;BME280;77099;56.074;37.376;2024-03-23T05:50:57;97493.41;;;2.46;78.94
70952;BME280;77099;56.074;37.376;2024-03-23T05:53:24;97494.34;;;2.52;79.56
70952;BME280;77099;56.074;37.376;2024-03-23T05:55:50;97497.56;;;2.60;79.13
70952;BME280;77099;56.074;37.376;2024-03-23T05:58:17;97498.50;;;2.66;79.49
70952;BME280;77099;56.074;37.376;2024-03-23T06:01:02;97499.09;;;2.68;79.60
70952;BME280;77099;56.074;37.376;2024-03-23T06:03:28;97485.88;;;2.67;79.10
70952;BME280;77099;56.074;37.376;2024-03-23T06:05:55;97486.91;;;2.66;79.03
70952;BME280;77099;56.074;37.376;2024-03-23T06:08:21;97486.91;;;2.66;79.37
70952;BME280;77099;56.074;37.376;2024-03-23T06:10:47;97462.75;;;2.47;79.00
70952;BME280;77099;56.074;37.376;2024-03-23T06:13:13;97480.56;;;2.60;79.79
70952;BME280;77099;56.074;37.376;2024-03-23T06:15:39;97483.63;;;2.64;80.30
70952;BME280;77099;56.074;37.376;2024-03-23T06:18:05;97481.53;;;2.66;79.90
70952;BME280;77099;56.074;37.376;2024-03-23T06:20:31;97459.28;;;2.58;79.42
70952;BME280;77099;56.074;37.376;2024-03-23T06:22:57;97476.97;;;2.66;80.32
70952;BME280;77099;56.074;37.376;2024-03-23T06:25:23;97463.28;;;2.68;79.90
70952;BME280;77099;56.074;37.376;2024-03-23T06:27:49;97471.94;;;2.70;80.59
70952;BME280;77099;56.074;37.376;2024-03-23T06:30:14;97464.69;;;2.70;80.13
70952;BME280;77099;56.074;37.376;2024-03-23T06:32:40;97465.28;;;2.72;80.15
70952;BME280;77099;56.074;37.376;2024-03-23T06:35:06;97446.66;;;2.71;80.65
70952;BME280;77099;56.074;37.376;2024-03-23T06:37:35;97456.38;;;2.72;79.85
70952;BME280;77099;56.074;37.376;2024-03-23T06:40:01;97459.66;;;2.74;79.53
70952;BME280;77099;56.074;37.376;2024-03-23T06:42:29;97451.00;;;2.72;79.79
70952;BME280;77099;56.074;37.376;2024-03-23T06:44:54;97457.19;;;2.72;80.89
70952;BME280;77099;56.074;37.376;2024-03-23T06:47:20;97440.44;;;2.70;81.05
70952;BME280;77099;56.074;37.376;2024-03-23T06:49:45;97437.84;;;2.64;80.96
70952;BME280;77099;56.074;37.376;2024-03-23T06:52:11;97450.28;;;2.76;80.23
70952;BME280;77099;56.074;37.376;2024-03-23T06:54:37;97437.06;;;2.75;80.41
70952;BME280;77099;56.074;37.376;2024-03-23T06:57:02;97447.72;;;2.81;81.03
70952;BME280;77099;56.074;37.376;2024-03-23T06:59:28;97434.84;;;2.83;80.66
70952;BME280;77099;56.074;37.376;2024-03-23T07:01:54;97442.22;;;2.88;81.52
70952;BME280;77099;56.074;37.376;2024-03-23T07:04:19;97431.81;;;2.91;81.24
70952;BME280;77099;56.074;37.376;2024-03-23T07:06:45;97426.78;;;2.95;82.00
70952;BME280;77099;56.074;37.376;2024-03-23T07:09:11;97422.56;;;2.99;82.04
70952;BME280;77099;56.074;37.376;2024-03-23T07:11:37;97428.66;;;3.06;81.73
70952;BME280;77099;56.074;37.376;2024-03-23T07:14:03;97423.38;;;3.11;82.53
70952;BME280;77099;56.074;37.376;2024-03-23T07:16:29;97422.69;;;3.16;82.23
70952;BME280;77099;56.074;37.376;2024-03-23T07:18:55;97419.88;;;3.22;82.82
70952;BME280;77099;56.074;37.376;2024-03-23T07:21:21;97412.97;;;3.27;81.85
70952;BME280;77099;56.074;37.376;2024-03-23T07:23:47;97432.28;;;3.35;82.89
70952;BME280;77099;56.074;37.376;2024-03-23T07:26:13;97416.94;;;3.36;82.20
70952;BME280;77099;56.074;37.376;2024-03-23T07:28:39;97420.47;;;3.24;82.46
70952;BME280;77099;56.074;37.376;2024-03-23T07:31:13;97429.25;;;3.32;82.71
70952;BME280;77099;56.074;37.376;2024-03-23T07:33:48;97430.88;;;3.33;82.32
70952;BME280;77099;56.074;37.376;2024-03-23T07:36:14;97417.88;;;3.30;82.35
70952;BME280;77099;56.074;37.376;2024-03-23T07:38:41;97412.13;;;3.26;82.51
70952;BME280;77099;56.074;37.376;2024-03-23T07:41:20;97413.06;;;3.32;83.01
70952;BME280;77099;56.074;37.376;2024-03-23T07:43:47;97416.69;;;3.37;82.48
70952;BME280;77099;56.074;37.376;2024-03-23T07:46:14;97416.00;;;3.42;82.70
70952;BME280;77099;56.074;37.376;2024-03-23T07:48:40;97408.47;;;3.44;83.23
70952;BME280;77099;56.074;37.376;2024-03-23T07:51:10;97394.41;;;3.42;82.55
70952;BME280;77099;56.074;37.376;2024-03-23T07:53:37;97405.06;;;3.48;82.85
70952;BME280;77099;56.074;37.376;2024-03-23T07:56:06;97408.25;;;3.45;83.27
70952;BME280;77099;56.074;37.376;2024-03-23T07:58:32;97391.84;;;3.35;83.30
70952;BME280;77099;56.074;37.376;2024-03-23T08:01:05;97394.53;;;3.47;83.17
70952;BME280;77099;56.074;37.376;2024-03-23T08:03:34;97398.38;;;3.51;82.99
70952;BME280;77099;56.074;37.376;2024-03-23T08:06:14;97397.19;;;3.58;83.53
70952;BME280;77099;56.074;37.376;2024-03-23T08:08:41;97387.22;;;3.59;83.60
70952;BME280;77099;56.074;37.376;2024-03-23T08:11:07;97387.47;;;3.57;82.67
70952;BME280;77099;56.074;37.376;2024-03-23T08:13:34;97372.34;;;3.56;83.71
70952;BME280;77099;56.074;37.376;2024-03-23T08:16:01;97384.88;;;3.63;83.16
70952;BME280;77099;56.074;37.376;2024-03-23T08:18:27;97382.19;;;3.63;83.13
70952;BME280;77099;56.074;37.376;2024-03-23T08:21:00;97391.44;;;3.67;83.63
70952;BME280;77099;56.074;37.376;2024-03-23T08:23:30;97398.13;;;3.64;82.99
70952;BME280;77099;56.074;37.376;2024-03-23T08:26:00;97370.47;;;3.57;82.94
70952;BME280;77099;56.074;37.376;2024-03-23T08:28:26;97384.88;;;3.63;83.15
70952;BME280;77099;56.074;37.376;2024-03-23T08:30:53;97391.56;;;3.60;83.73
70952;BME280;77099;56.074;37.376;2024-03-23T08:33:19;97388.28;;;3.58;83.45
70952;BME280;77099;56.074;37.376;2024-03-23T08:36:07;97369.91;;;3.55;83.13
70952;BME280;77099;56.074;37.376;2024-03-23T08:38:34;97382.19;;;3.63;83.92
70952;BME280;77099;56.074;37.376;2024-03-23T08:43:31;97370.88;;;3.77;83.70
70952;BME280;77099;56.074;37.376;2024-03-23T08:46:09;97361.84;;;3.83;84.19
70952;BME280;77099;56.074;37.376;2024-03-23T08:48:38;97351.88;;;3.84;84.22
70952;BME280;77099;56.074;37.376;2024-03-23T08:51:05;97336.06;;;3.76;84.37
70952;BME280;77099;56.074;37.376;2024-03-23T08:53:32;97360.47;;;3.98;83.62
70952;BME280;77099;56.074;37.376;2024-03-23T08:55:59;97353.44;;;3.97;83.66
70952;BME280;77099;56.074;37.376;2024-03-23T08:58:26;97363.19;;;3.98;83.14
70952;BME280;77099;56.074;37.376;2024-03-23T09:00:52;97350.19;;;3.95;83.99
70952;BME280;77099;56.074;37.376;2024-03-23T09:03:21;97354.50;;;3.96;83.51
70952;BME280;77099;56.074;37.376;2024-03-23T09:05:46;97349.50;;;3.87;83.80
70952;BME280;77099;56.074;37.376;2024-03-23T09:08:12;97358.84;;;3.97;83.68
70952;BME280;77099;56.074;37.376;2024-03-23T09:10:38;97347.09;;;4.03;83.74
70952;BME280;77099;56.074;37.376;2024-03-23T09:13:04;97344.25;;;4.09;83.71
70952;BME280;77099;56.074;37.376;2024-03-23T09:15:30;97338.59;;;4.11;84.29
70952;BME280;77099;56.074;37.376;2024-03-23T09:17:59;97339.59;;;4.21;84.38
70952;BME280;77099;56.074;37.376;2024-03-23T09:20:25;97335.03;;;4.22;83.60
70952;BME280;77099;56.074;37.376;2024-03-23T09:22:50;97316.03;;;4.17;84.37
70952;BME280;77099;56.074;37.376;2024-03-23T09:25:16;97328.94;;;4.15;84.36
70952;BME280;77099;56.074;37.376;2024-03-23T09:27:46;97340.00;;;4.13;84.03
70952;BME280;77099;56.074;37.376;2024-03-23T09:30:13;97305.38;;;3.94;84.49
70952;BME280;77099;56.074;37.376;2024-03-23T09:32:39;97324.13;;;4.17;83.93
70952;BME280;77099;56.074;37.376;2024-03-23T09:35:04;97328.06;;;4.26;83.97
70952;BME280;77099;56.074;37.376;2024-03-23T09:37:30;97338.94;;;4.31;84.58
70952;BME280;77099;56.074;37.376;2024-03-23T09:39:56;97331.84;;;4.25;84.41
70952;BME280;77099;56.074;37.376;2024-03-23T09:42:21;97314.63;;;4.14;84.49
70952;BME280;77099;56.074;37.376;2024-03-23T09:44:51;97323.16;;;4.23;83.93
70952;BME280;77099;56.074;37.376;2024-03-23T09:47:17;97312.34;;;4.23;84.16
70952;BME280;77099;56.074;37.376;2024-03-23T09:49:43;97319.31;;;4.19;84.23
70952;BME280;77099;56.074;37.376;2024-03-23T09:52:10;97315.22;;;4.16;84.89
70952;BME280;77099;56.074;37.376;2024-03-23T09:54:36;97318.16;;;4.15;84.27
70952;BME280;77099;56.074;37.376;2024-03-23T09:57:01;97323.88;;;4.18;84.50
70952;BME280;77099;56.074;37.376;2024-03-23T09:59:29;97316.59;;;4.19;84.91
70952;BME280;77099;56.074;37.376;2024-03-23T10:01:55;97322.81;;;4.19;84.77
70952;BME280;77099;56.074;37.376;2024-03-23T10:04:43;97313.59;;;4.15;84.44
70952;BME280;77099;56.074;37.376;2024-03-23T10:07:21;97324.72;;;4.19;85.07
70952;BME280;77099;56.074;37.376;2024-03-23T10:09:50;97318.72;;;4.17;84.47
70952;BME280;77099;56.074;37.376;2024-03-23T10:12:19;97322.59;;;4.21;84.73
70952;BME280;77099;56.074;37.376;2024-03-23T10:14:45;97315.31;;;4.21;85.18
70952;BME280;77099;56.074;37.376;2024-03-23T10:17:22;97321.59;;;4.27;84.83
70952;BME280;77099;56.074;37.376;2024-03-23T10:19:56;97316.28;;;4.32;85.11
70952;BME280;77099;56.074;37.376;2024-03-23T10:22:23;97316.88;;;4.34;85.09
70952;BME280;77099;56.074;37.376;2024-03-23T10:24:50;97321.53;;;4.39;85.47
70952;BME280;77099;56.074;37.376;2024-03-23T10:27:20;97300.50;;;4.41;85.75
70952;BME280;77099;56.074;37.376;2024-03-23T10:29:49;97309.59;;;4.51;84.99
70952;BME280;77099;56.074;37.376;2024-03-23T10:32:17;97310.25;;;4.59;85.20
70952;BME280;77099;56.074;37.376;2024-03-23T10:34:43;97310.81;;;4.61;84.81
70952;BME280;77099;56.074;37.376;2024-03-23T10:37:09;97313.50;;;4.61;85.40
70952;BME280;77099;56.074;37.376;2024-03-23T10:39:38;97308.09;;;4.61;85.03
70952;BME280;77099;56.074;37.376;2024-03-23T10:42:05;97302.38;;;4.57;84.98
70952;BME280;77099;56.074;37.376;2024-03-23T10:44:32;97322.44;;;4.61;85.14
70952;BME280;77099;56.074;37.376;2024-03-23T10:47:01;97284.31;;;4.41;85.31
70952;BME280;77099;56.074;37.376;2024-03-23T10:49:34;97318.56;;;4.74;85.09
70952;BME280;77099;56.074;37.376;2024-03-23T10:52:02;97318.09;;;4.77;85.55
70952;BME280;77099;56.074;37.376;2024-03-23T10:54:30;97311.78;;;4.71;85.58
70952;BME280;77099;56.074;37.376;2024-03-23T10:57:03;97312.84;;;4.70;85.74
70952;BME280;77099;56.074;37.376;2024-03-23T10:59:31;97312.28;;;4.68;84.66
70952;BME280;77099;56.074;37.376;2024-03-23T11:01:58;97313.59;;;4.66;85.77
70952;BME280;77099;56.074;37.376;2024-03-23T11:04:34;97311.63;;;4.61;85.75
70952;BME280;77099;56.074;37.376;2024-03-23T11:07:01;97304.03;;;4.58;85.26
70952;BME280;77099;56.074;37.376;2024-03-23T11:09:40;97319.00;;;4.66;85.60
70952;BME280;77099;56.074;37.376;2024-03-23T11:14:52;97306.56;;;4.65;85.67
70952;BME280;77099;56.074;37.376;2024-03-23T11:17:19;97300.34;;;4.64;85.79
70952;BME280;77099;56.074;37.376;2024-03-23T11:19:52;97300.91;;;4.66;85.77
70952;BME280;77099;56.074;37.376;2024-03-23T11:22:52;97261.97;;;4.45;86.56
70952;BME280;77099;56.074;37.376;2024-03-23T11:27:47;97297.72;;;4.69;86.41
70952;BME280;77099;56.074;37.376;2024-03-23T11:32:46;97301.81;;;4.72;87.09
70952;BME280;77099;56.074;37.376;2024-03-23T11:35:28;97297.28;;;4.77;87.28
70952;BME280;77099;56.074;37.376;2024-03-23T11:38:16;97285.59;;;4.72;87.38
70952;BME280;77099;56.074;37.376;2024-03-23T11:40:45;97289.50;;;4.81;87.06
70952;BME280;77099;56.074;37.376;2024-03-23T11:43:18;97281.66;;;4.79;87.46
70952;BME280;77099;56.074;37.376;2024-03-23T11:45:45;97288.69;;;4.80;87.33
70952;BME280;77099;56.074;37.376;2024-03-23T11:50:40;97289.69;;;4.74;87.57
70952;BME280;77099;56.074;37.376;2024-03-23T11:53:23;97266.34;;;4.68;87.25
70952;BME280;77099;56.074;37.376;2024-03-23T11:55:50;97275.34;;;4.74;87.85
70952;BME280;77099;56.074;37.376;2024-03-23T11:58:18;97265.13;;;4.76;87.87
70952;BME280;77099;56.074;37.376;2024-03-23T12:03:16;97279.41;;;4.93;87.81
70952;BME280;77099;56.074;37.376;2024-03-23T12:05:47;97267.22;;;4.91;88.59
70952;BME280;77099;56.074;37.376;2024-03-23T12:08:15;97274.38;;;5.02;88.48
70952;BME280;77099;56.074;37.376;2024-03-23T12:10:44;97267.47;;;5.11;88.62
70952;BME280;77099;56.074;37.376;2024-03-23T12:13:10;97266.50;;;5.22;88.50
70952;BME280;77099;56.074;37.376;2024-03-23T12:15:36;97268.22;;;5.28;88.44
70952;BME280;77099;56.074;37.376;2024-03-23T12:18:08;97261.94;;;5.22;88.48
70952;BME280;77099;56.074;37.376;2024-03-23T12:20:35;97237.13;;;5.04;88.12
70952;BME280;77099;56.074;37.376;2024-03-23T12:23:08;97257.16;;;5.30;88.90
70952;BME280;77099;56.074;37.376;2024-03-23T12:25:36;97265.69;;;5.21;88.55
70952;BME280;77099;56.074;37.376;2024-03-23T12:28:02;97263.97;;;5.10;88.48
70952;BME280;77099;56.074;37.376;2024-03-23T12:30:28;97274.22;;;5.08;88.19
70952;BME280;77099;56.074;37.376;2024-03-23T12:32:53;97266.59;;;5.05;88.29
70952;BME280;77099;56.074;37.376;2024-03-23T12:35:19;97261.75;;;5.07;88.87
70952;BME280;77099;56.074;37.376;2024-03-23T12:37:45;97259.63;;;5.09;88.64
70952;BME280;77099;56.074;37.376;2024-03-23T12:40:11;97266.47;;;5.17;89.22
70952;BME280;77099;56.074;37.376;2024-03-23T12:42:37;97260.25;;;5.16;88.70
70952;BME280;77099;56.074;37.376;2024-03-23T12:45:03;97256.16;;;5.14;88.98
70952;BME280;77099;56.074;37.376;2024-03-23T12:47:30;97253.22;;;5.15;88.69
70952;BME280;77099;56.074;37.376;2024-03-23T12:49:56;97260.50;;;5.15;89.29
70952;BME280;77099;56.074;37.376;2024-03-23T12:52:21;97257.34;;;5.01;88.68
70952;BME280;77099;56.074;37.376;2024-03-23T12:54:49;97257.78;;;4.93;88.72
70952;BME280;77099;56.074;37.376;2024-03-23T12:57:15;97264.25;;;4.92;88.77
70952;BME280;77099;56.074;37.376;2024-03-23T12:59:40;97260.69;;;4.86;88.56
70952;BME280;77099;56.074;37.376;2024-03-23T13:02:06;97259.84;;;4.86;89.24
70952;BME280;77099;56.074;37.376;2024-03-23T13:04:32;97227.16;;;4.66;89.25
70952;BME280;77099;56.074;37.376;2024-03-23T13:06:58;97245.78;;;4.84;89.36
70952;BME280;77099;56.074;37.376;2024-03-23T13:09:24;97248.47;;;4.84;88.95
70952;BME280;77099;56.074;37.376;2024-03-23T13:11:49;97258.47;;;4.83;89.16
70952;BME280;77099;56.074;37.376;2024-03-23T13:14:15;97231.31;;;4.73;89.43
70952;BME280;77099;56.074;37.376;2024-03-23T13:16:42;97242.19;;;4.78;89.41
70952;BME280;77099;56.074;37.376;2024-03-23T13:19:08;97250.13;;;4.85;89.55
70952;BME280;77099;56.074;37.376;2024-03-23T13:21:33;97252.88;;;4.90;89.75
70952;BME280;77099;56.074;37.376;2024-03-23T13:23:59;97252.56;;;4.86;89.18
70952;BME280;77099;56.074;37.376;2024-03-23T13:26:24;97247.91;;;4.82;89.71
70952;BME280;77099;56.074;37.376;2024-03-23T13:28:50;97227.22;;;4.71;89.12
70952;BME280;77099;56.074;37.376;2024-03-23T13:31:16;97256.53;;;4.79;89.40
70952;BME280;77099;56.074;37.376;2024-03-23T13:33:41;97250.53;;;4.77;89.41
70952;BME280;77099;56.074;37.376;2024-03-23T13:36:09;97215.97;;;4.57;89.46
70952;BME280;77099;56.074;37.376;2024-03-23T13:38:35;97251.53;;;4.71;90.17
70952;BME280;77099;56.074;37.376;2024-03-23T13:41:00;97199.78;;;4.40;89.80
70952;BME280;77099;56.074;37.376;2024-03-23T13:43:27;97241.34;;;4.56;89.80
70952;BME280;77099;56.074;37.376;2024-03-23T13:45:57;97245.34;;;4.53;89.73
70952;BME280;77099;56.074;37.376;2024-03-23T13:48:24;97238.31;;;4.52;89.91
70952;BME280;77099;56.074;37.376;2024-03-23T13:51:00;97242.06;;;4.51;89.47
70952;BME280;77099;56.074;37.376;2024-03-23T13:53:26;97241.44;;;4.44;89.84
70952;BME280;77099;56.074;37.376;2024-03-23T13:55:52;97251.41;;;4.44;90.17
70952;BME280;77099;56.074;37.376;2024-03-23T13:58:18;97245.94;;;4.39;89.98
70952;BME280;77099;56.074;37.376;2024-03-23T14:00:44;97226.63;;;4.30;89.67
70952;BME280;77099;56.074;37.376;2024-03-23T14:03:10;97234.41;;;4.27;89.49
70952;BME280;77099;56.074;37.376;2024-03-23T14:05:37;97241.78;;;4.31;89.66
70952;BME280;77099;56.074;37.376;2024-03-23T14:08:09;97257.16;;;4.31;90.18
70952;BME280;77099;56.074;37.376;2024-03-23T14:10:35;97252.81;;;4.30;89.80